Time;durP1;ratioP1;P1;durP2;ratioP2;P2;SDS_P1;SDS_P2;PMS_P1;PMS_P2;Temp;Humidity;BMP_temperature;BMP_pressure;BME280_temperature;BME280_humidity;BME280_pressure;Samples;Min_cycle;Max_cycle;Signal;HPM_P1;HPM_P2
2023/05/10 00:00:15;;;;;;;;;;;;;;;15.91;55.57;97251.34;5107001;27;19946;-64
2023/05/10 00:03:05;;;;;;;;;;;;;;;15.84;58.25;97252.00;5107953;28;20351;-65
2023/05/10 00:05:55;;;;;;;;;;;;;;;15.75;59.94;97253.38;5105640;28;19934;-62
2023/05/10 00:08:43;;;;;;;;;;;;;;;15.67;61.13;97246.97;5104423;28;19931;-65
2023/05/10 00:11:32;;;;;;;;;;;;;;;15.65;61.47;97244.59;5096049;27;19992;-64
2023/05/10 00:14:20;;;;;;;;;;;;;;;15.65;61.40;97243.78;5100809;28;19992;-64
2023/05/10 00:17:11;;;;;;;;;;;;;;;15.60;61.88;97242.09;5093717;28;20387;-67
2023/05/10 00:20:00;;;;;;;;;;;;;;;15.60;62.32;97244.84;5106582;28;19958;-65
2023/05/10 00:22:49;;;;;;;;;;;;;;;15.52;63.62;97234.13;5100780;28;19957;-66
2023/05/10 00:25:38;;;;;;;;;;;;;;;15.49;64.85;97237.56;5100676;28;20195;-64
2023/05/10 00:28:26;;;;;;;;;;;;;;;15.50;65.15;97236.41;5106494;28;19938;-64
2023/05/10 00:31:14;;;;;;;;;;;;;;;15.48;65.66;97231.31;5091878;28;19984;-65
2023/05/10 00:34:02;;;;;;;;;;;;;;;15.47;66.48;97235.19;5105062;27;19942;-67
2023/05/10 00:36:50;;;;;;;;;;;;;;;15.42;67.46;97236.25;5077741;28;20025;-65
2023/05/10 00:39:40;;;;;;;;;;;;;;;15.40;68.86;97237.78;5118405;27;19941;-64
2023/05/10 00:42:28;;;;;;;;;;;;;;;15.39;69.33;97234.25;5117828;27;19950;-67
2023/05/10 00:45:16;;;;;;;;;;;;;;;15.28;70.73;97235.97;5116965;27;20686;-66
2023/05/10 00:48:04;;;;;;;;;;;;;;;15.26;71.65;97232.00;5090102;28;20451;-67
2023/05/10 00:50:53;;;;;;;;;;;;;;;15.26;72.66;97232.00;5090076;28;19934;-66
2023/05/10 00:53:41;;;;;;;;;;;;;;;15.28;73.01;97235.16;5097959;28;20399;-67
2023/05/10 00:56:31;;;;;;;;;;;;;;;15.24;74.09;97235.09;5118900;27;20038;-67
2023/05/10 00:59:19;;;;;;;;;;;;;;;15.18;74.66;97237.34;5104599;28;20433;-65
2023/05/10 01:02:07;;;;;;;;;;;;;;;15.23;74.81;97240.91;5103075;28;19938;-66
2023/05/10 01:04:56;;;;;;;;;;;;;;;15.18;75.73;97242.81;5104592;28;19934;-66
2023/05/10 01:07:44;;;;;;;;;;;;;;;15.13;76.39;97236.81;5094390;28;19958;-68
2023/05/10 01:10:32;;;;;;;;;;;;;;;15.09;76.48;97234.00;5089880;28;20018;-67
2023/05/10 01:13:28;;;;;;;;;;;;;;;15.04;77.22;97245.22;5104587;28;19934;-67
2023/05/10 01:16:16;;;;;;;;;;;;;;;14.99;77.54;97245.50;5104056;28;20298;-67
2023/05/10 01:19:05;;;;;;;;;;;;;;;15.00;78.00;97241.59;5103592;28;19931;-67
2023/05/10 01:21:55;;;;;;;;;;;;;;;14.96;78.23;97246.19;5103620;28;19974;-66
2023/05/10 01:25:02;;;;;;;;;;;;;;;14.94;77.95;97245.75;5118141;27;19954;-66
2023/05/10 01:28:04;;;;;;;;;;;;;;;14.98;78.10;97243.13;5116137;27;20014;-65
2023/05/10 01:31:08;;;;;;;;;;;;;;;14.93;78.39;97247.72;5088929;28;20046;-67
2023/05/10 01:33:58;;;;;;;;;;;;;;;14.88;79.02;97247.19;5078263;28;20021;-66
2023/05/10 01:36:49;;;;;;;;;;;;;;;14.87;79.36;97237.41;5078041;28;19926;-67
2023/05/10 01:39:38;;;;;;;;;;;;;;;14.86;79.91;97235.78;5088096;28;19934;-67
2023/05/10 01:42:28;;;;;;;;;;;;;;;14.78;80.28;97240.31;5101869;28;19938;-67
2023/05/10 01:45:19;;;;;;;;;;;;;;;14.80;80.81;97237.22;5102085;27;19934;-66
2023/05/10 01:48:08;;;;;;;;;;;;;;;14.81;80.40;97233.34;5103762;27;19943;-67
2023/05/10 01:50:57;;;;;;;;;;;;;;;14.75;80.81;97232.81;5101054;28;19966;-66
2023/05/10 01:53:46;;;;;;;;;;;;;;;14.76;81.27;97234.41;5105032;28;19928;-64
2023/05/10 01:56:36;;;;;;;;;;;;;;;14.71;81.55;97245.63;5102292;28;19930;-66
2023/05/10 01:59:25;;;;;;;;;;;;;;;14.73;81.54;97243.31;5080740;28;20684;-67
2023/05/10 02:02:14;;;;;;;;;;;;;;;14.71;81.58;97250.31;5116596;27;19962;-66
2023/05/10 02:05:03;;;;;;;;;;;;;;;14.74;81.88;97244.91;5115614;27;19938;-66
2023/05/10 02:07:52;;;;;;;;;;;;;;;14.76;81.51;97244.56;5116893;27;20461;-66
2023/05/10 02:10:40;;;;;;;;;;;;;;;14.75;81.82;97248.44;5102215;28;19998;-65
2023/05/10 02:13:28;;;;;;;;;;;;;;;14.73;81.95;97242.53;5101953;28;19954;-66
2023/05/10 02:16:17;;;;;;;;;;;;;;;14.78;81.93;97245.78;5088314;28;20003;-67
2023/05/10 02:19:05;;;;;;;;;;;;;;;14.76;82.32;97250.81;5091946;28;19930;-69
2023/05/10 02:21:53;;;;;;;;;;;;;;;14.82;81.96;97245.88;5094776;28;19969;-66
2023/05/10 02:24:43;;;;;;;;;;;;;;;14.80;81.73;97242.69;5093992;28;19994;-66
2023/05/10 02:27:31;;;;;;;;;;;;;;;14.77;81.50;97238.75;5087277;28;19931;-67
2023/05/10 02:30:20;;;;;;;;;;;;;;;14.76;81.99;97245.34;5095951;28;20031;-67
2023/05/10 02:33:10;;;;;;;;;;;;;;;14.73;82.51;97245.25;5101583;28;19992;-67
2023/05/10 02:35:58;;;;;;;;;;;;;;;14.72;82.92;97243.69;5101492;28;20289;-66
2023/05/10 02:38:47;;;;;;;;;;;;;;;14.70;83.29;97248.69;5101070;28;19967;-66
2023/05/10 02:41:36;;;;;;;;;;;;;;;14.64;83.54;97246.22;5103306;27;19938;-67
2023/05/10 02:44:24;;;;;;;;;;;;;;;14.66;83.17;97249.41;5104764;27;20513;-67
2023/05/10 02:47:12;;;;;;;;;;;;;;;14.66;83.32;97248.63;5086036;28;19923;-67
2023/05/10 02:50:00;;;;;;;;;;;;;;;14.60;83.74;97253.56;5087442;28;19945;-67
2023/05/10 02:52:52;;;;;;;;;;;;;;;14.60;83.70;97256.31;5097340;28;19953;-66
2023/05/10 02:55:41;;;;;;;;;;;;;;;14.56;84.19;97249.94;5105928;27;19958;-67
2023/05/10 02:58:33;;;;;;;;;;;;;;;14.49;84.06;97244.31;5109101;28;20021;-66
2023/05/10 03:01:21;;;;;;;;;;;;;;;14.54;83.92;97244.06;5095483;28;19938;-65
2023/05/10 03:04:09;;;;;;;;;;;;;;;14.46;84.33;97249.66;5115133;28;19919;-66
2023/05/10 03:06:58;;;;;;;;;;;;;;;14.40;84.76;97254.59;5114622;27;20049;-67
2023/05/10 03:09:46;;;;;;;;;;;;;;;14.39;84.79;97250.28;5095480;28;19954;-67
2023/05/10 03:12:50;;;;;;;;;;;;;;;14.44;84.39;97254.69;5080069;28;20299;-67
2023/05/10 03:15:42;;;;;;;;;;;;;;;14.41;84.53;97258.91;5087537;28;19992;-66
2023/05/10 03:18:33;;;;;;;;;;;;;;;14.39;84.34;97259.28;5102359;28;19948;-67
2023/05/10 03:21:22;;;;;;;;;;;;;;;14.38;84.30;97265.06;5076221;28;19959;-64
2023/05/10 03:24:12;;;;;;;;;;;;;;;14.38;83.30;97254.94;5091535;28;19984;-68
2023/05/10 03:27:02;;;;;;;;;;;;;;;14.29;83.27;97261.72;5098965;28;20032;-67
2023/05/10 03:29:51;;;;;;;;;;;;;;;14.22;83.76;97264.25;5101908;28;19942;-66
2023/05/10 03:32:41;;;;;;;;;;;;;;;14.18;83.89;97266.13;5090440;28;20431;-66
2023/05/10 03:35:29;;;;;;;;;;;;;;;14.16;84.55;97269.97;5090912;28;19982;-67
2023/05/10 03:38:17;;;;;;;;;;;;;;;14.16;84.03;97272.69;5106197;28;19935;-67
2023/05/10 03:41:06;;;;;;;;;;;;;;;14.11;83.44;97259.34;5118023;27;19991;-65
2023/05/10 03:43:55;;;;;;;;;;;;;;;14.30;82.00;97279.69;5095917;28;19954;-67
2023/05/10 03:46:43;;;;;;;;;;;;;;;14.28;81.24;97271.88;5105130;28;19931;-66
2023/05/10 03:49:32;;;;;;;;;;;;;;;14.18;81.40;97275.09;5100861;28;19962;-64
2023/05/10 03:52:21;;;;;;;;;;;;;;;14.05;82.27;97279.81;5089756;28;19949;-67
2023/05/10 03:55:09;;;;;;;;;;;;;;;14.07;81.50;97285.75;5093237;28;20056;-66
2023/05/10 03:57:58;;;;;;;;;;;;;;;14.00;81.44;97288.25;5090802;28;20029;-67
2023/05/10 04:00:47;;;;;;;;;;;;;;;13.94;81.93;97289.66;5115125;27;19939;-68
2023/05/10 04:03:36;;;;;;;;;;;;;;;13.96;82.05;97292.84;5092853;28;20405;-68
2023/05/10 04:06:27;;;;;;;;;;;;;;;13.96;82.02;97300.25;5091726;28;19973;-66
2023/05/10 04:09:16;;;;;;;;;;;;;;;13.89;81.91;97298.09;5090244;28;20060;-66
2023/05/10 04:12:05;;;;;;;;;;;;;;;13.86;82.38;97301.53;5105322;28;19935;-66
2023/05/10 04:14:55;;;;;;;;;;;;;;;13.96;82.32;97311.19;5083260;28;20332;-66
2023/05/10 04:17:43;;;;;;;;;;;;;;;13.83;82.33;97315.88;5105225;28;19926;-67
2023/05/10 04:20:33;;;;;;;;;;;;;;;13.83;81.62;97315.88;5103630;28;19920;-67
2023/05/10 04:23:22;;;;;;;;;;;;;;;13.82;81.48;97317.81;5085661;28;19962;-67
2023/05/10 04:26:10;;;;;;;;;;;;;;;13.82;81.87;97314.28;5088590;28;20493;-66
2023/05/10 04:28:58;;;;;;;;;;;;;;;13.80;81.42;97324.78;5091730;28;19938;-66
2023/05/10 04:31:46;;;;;;;;;;;;;;;13.75;80.64;97320.34;5105045;28;20643;-67
2023/05/10 04:34:35;;;;;;;;;;;;;;;13.80;80.26;97325.56;5104500;28;20568;-66
2023/05/10 04:37:25;;;;;;;;;;;;;;;13.69;79.99;97326.38;5103058;28;20092;-64
2023/05/10 04:40:15;;;;;;;;;;;;;;;13.68;79.48;97330.25;5099275;28;19982;-67
2023/05/10 04:43:03;;;;;;;;;;;;;;;13.63;79.89;97339.47;5102020;28;19950;-67
2023/05/10 04:45:51;;;;;;;;;;;;;;;13.57;80.06;97336.19;5105140;28;19920;-66
2023/05/10 04:48:40;;;;;;;;;;;;;;;13.62;80.36;97335.94;5101892;28;19938;-66
2023/05/10 04:51:28;;;;;;;;;;;;;;;13.66;80.52;97344.25;5103893;28;20383;-67
2023/05/10 04:54:18;;;;;;;;;;;;;;;13.63;80.06;97343.03;5107335;27;19924;-67
2023/05/10 04:57:08;;;;;;;;;;;;;;;13.60;79.37;97335.50;5104793;28;20022;-63
2023/05/10 04:59:56;;;;;;;;;;;;;;;13.63;79.40;97351.22;5117503;27;19957;-66
2023/05/10 05:02:45;;;;;;;;;;;;;;;13.66;78.70;97355.19;5100873;28;19938;-66
2023/05/10 05:05:33;;;;;;;;;;;;;;;13.67;78.51;97362.22;5104119;28;19943;-67
2023/05/10 05:08:22;;;;;;;;;;;;;;;13.72;78.54;97363.91;5103855;28;19949;-67
2023/05/10 05:11:11;;;;;;;;;;;;;;;13.75;78.55;97365.97;5104790;28;20626;-64
2023/05/10 05:14:00;;;;;;;;;;;;;;;13.68;78.44;97363.81;5105277;28;19963;-66
2023/05/10 05:16:51;;;;;;;;;;;;;;;13.71;77.89;97373.25;5102556;28;19959;-64
2023/05/10 05:19:39;;;;;;;;;;;;;;;13.70;77.57;97371.66;5104552;28;19968;-66
2023/05/10 05:22:28;;;;;;;;;;;;;;;13.74;77.65;97367.91;5104393;28;20025;-68
2023/05/10 05:25:16;;;;;;;;;;;;;;;13.73;76.85;97371.75;5104773;28;19985;-67
2023/05/10 05:28:05;;;;;;;;;;;;;;;13.77;76.61;97380.06;5105038;28;19991;-67
2023/05/10 05:30:54;;;;;;;;;;;;;;;13.79;76.50;97380.50;5105497;28;19942;-67
2023/05/10 05:33:42;;;;;;;;;;;;;;;13.91;75.88;97387.88;5105022;28;19940;-66
2023/05/10 05:36:31;;;;;;;;;;;;;;;13.93;76.30;97380.13;5100427;28;19924;-66
2023/05/10 05:39:22;;;;;;;;;;;;;;;13.92;75.63;97384.81;5098854;28;19942;-63
2023/05/10 05:42:10;;;;;;;;;;;;;;;13.95;76.13;97384.09;5100545;28;19938;-67
2023/05/10 05:44:58;;;;;;;;;;;;;;;13.85;75.98;97384.59;5088856;28;19953;-67
2023/05/10 05:47:48;;;;;;;;;;;;;;;13.87;75.31;97388.56;5103909;28;19949;-68
2023/05/10 05:50:37;;;;;;;;;;;;;;;13.98;75.04;97383.41;5094413;28;20268;-66
2023/05/10 05:53:25;;;;;;;;;;;;;;;13.87;75.66;97388.56;5087098;28;19924;-66
2023/05/10 05:56:13;;;;;;;;;;;;;;;13.83;75.60;97392.31;5103320;28;19934;-67
2023/05/10 05:59:01;;;;;;;;;;;;;;;13.84;75.59;97400.16;5093156;28;19942;-66
2023/05/10 06:01:49;;;;;;;;;;;;;;;13.82;75.29;97397.00;5084069;28;19935;-67
2023/05/10 06:04:39;;;;;;;;;;;;;;;13.86;76.07;97414.28;5103113;28;19924;-66
2023/05/10 06:07:29;;;;;;;;;;;;;;;14.03;74.80;97409.69;5097318;28;19957;-65
2023/05/10 06:10:17;;;;;;;;;;;;;;;14.03;75.15;97412.44;5099660;28;19920;-67
2023/05/10 06:13:06;;;;;;;;;;;;;;;14.05;74.68;97410.13;5101321;28;20011;-66
2023/05/10 06:15:54;;;;;;;;;;;;;;;14.05;75.01;97424.59;5100120;28;19956;-66
2023/05/10 06:18:42;;;;;;;;;;;;;;;14.10;74.59;97423.53;5087155;28;20488;-68
2023/05/10 06:21:32;;;;;;;;;;;;;;;14.07;74.91;97427.00;5092620;28;19924;-66
2023/05/10 06:24:21;;;;;;;;;;;;;;;14.09;74.33;97425.50;5101459;28;19931;-66
2023/05/10 06:27:09;;;;;;;;;;;;;;;14.14;74.12;97427.97;5102376;28;19920;-66
2023/05/10 06:29:57;;;;;;;;;;;;;;;14.29;72.91;97431.13;5103955;28;19924;-67
2023/05/10 06:32:59;;;;;;;;;;;;;;;14.26;73.83;97429.09;5087734;28;19962;-64
2023/05/10 06:35:49;;;;;;;;;;;;;;;14.40;72.75;97429.50;5101601;28;19920;-66
2023/05/10 06:38:38;;;;;;;;;;;;;;;14.41;73.15;97431.88;5103138;28;19968;-67
2023/05/10 06:41:26;;;;;;;;;;;;;;;14.37;72.26;97438.38;5099148;28;20446;-66
2023/05/10 06:44:15;;;;;;;;;;;;;;;14.42;72.77;97440.84;5092820;28;19923;-66
2023/05/10 06:47:03;;;;;;;;;;;;;;;14.52;71.81;97439.59;5081407;28;19920;-66
2023/05/10 06:49:51;;;;;;;;;;;;;;;14.65;71.75;97441.94;5077607;28;19924;-67
2023/05/10 06:52:40;;;;;;;;;;;;;;;14.78;71.19;97441.88;5076473;28;19967;-65
2023/05/10 06:55:32;;;;;;;;;;;;;;;14.86;70.94;97443.63;5065403;28;19939;-65
2023/05/10 06:58:20;;;;;;;;;;;;;;;14.94;70.62;97442.69;5067940;28;19975;-65
2023/05/10 07:01:09;;;;;;;;;;;;;;;14.98;69.98;97451.78;5079228;28;19979;-66
2023/05/10 07:03:57;;;;;;;;;;;;;;;15.05;69.72;97440.22;5075260;28;19927;-65
2023/05/10 07:06:46;;;;;;;;;;;;;;;15.10;68.79;97448.97;5070111;28;20000;-66
2023/05/10 07:09:34;;;;;;;;;;;;;;;15.11;68.95;97450.56;5084529;28;19927;-64
2023/05/10 07:12:24;;;;;;;;;;;;;;;15.24;67.74;97445.81;5075636;28;20607;-64
2023/05/10 07:15:12;;;;;;;;;;;;;;;15.18;67.64;97456.22;5073613;28;19931;-66
2023/05/10 07:18:04;;;;;;;;;;;;;;;15.26;67.84;97456.41;5067592;28;19931;-64
2023/05/10 07:20:52;;;;;;;;;;;;;;;15.22;67.74;97458.25;5051617;28;19932;-66
2023/05/10 07:23:41;;;;;;;;;;;;;;;15.15;67.44;97461.59;5075787;28;20429;-66
2023/05/10 07:26:31;;;;;;;;;;;;;;;15.05;67.15;97462.91;5063702;28;20019;-65
2023/05/10 07:29:21;;;;;;;;;;;;;;;15.14;67.37;97466.28;5060967;28;19920;-65
2023/05/10 07:32:09;;;;;;;;;;;;;;;15.19;66.88;97468.75;5062069;28;19921;-67
2023/05/10 07:34:58;;;;;;;;;;;;;;;15.36;66.59;97475.03;5055827;28;19920;-66
2023/05/10 07:37:50;;;;;;;;;;;;;;;15.36;65.78;97473.09;5060061;28;19925;-68
2023/05/10 07:40:38;;;;;;;;;;;;;;;15.32;65.84;97471.41;5062726;28;19920;-66
2023/05/10 07:43:26;;;;;;;;;;;;;;;15.28;64.94;97478.72;5054506;28;20240;-65
2023/05/10 07:46:16;;;;;;;;;;;;;;;15.34;64.98;97474.56;5046214;28;19932;-66
2023/05/10 07:49:04;;;;;;;;;;;;;;;15.18;65.51;97483.59;5053341;28;20278;-66
2023/05/10 07:51:52;;;;;;;;;;;;;;;15.16;66.12;97477.66;5060410;28;19925;-66
2023/05/10 07:54:41;;;;;;;;;;;;;;;15.12;66.76;97484.97;5062715;28;20039;-66
2023/05/10 07:57:29;;;;;;;;;;;;;;;15.16;66.58;97480.41;5066805;28;19928;-66
2023/05/10 08:00:18;;;;;;;;;;;;;;;15.11;66.60;97483.38;5065510;28;20018;-69
2023/05/10 08:03:08;;;;;;;;;;;;;;;15.16;66.61;97485.88;5061442;28;19932;-63
2023/05/10 08:05:56;;;;;;;;;;;;;;;15.28;65.78;97487.72;5060045;28;19966;-66
2023/05/10 08:08:45;;;;;;;;;;;;;;;15.25;66.26;97487.66;5064940;28;19971;-65
2023/05/10 08:11:33;;;;;;;;;;;;;;;15.16;66.87;97485.88;5059717;28;19932;-66
2023/05/10 08:14:22;;;;;;;;;;;;;;;15.19;67.06;97490.66;5062032;28;19924;-65
2023/05/10 08:17:10;;;;;;;;;;;;;;;15.26;66.75;97494.72;5063959;28;19950;-66
2023/05/10 08:20:00;;;;;;;;;;;;;;;15.25;66.09;97498.59;5067160;28;19926;-66
2023/05/10 08:22:49;;;;;;;;;;;;;;;15.31;65.90;97500.72;5086509;28;19975;-67
2023/05/10 08:25:39;;;;;;;;;;;;;;;15.40;66.21;97497.81;5084593;28;20078;-64
2023/05/10 08:28:27;;;;;;;;;;;;;;;15.49;65.22;97503.91;5068449;28;19939;-64
2023/05/10 08:31:15;;;;;;;;;;;;;;;15.56;64.13;97495.88;5070001;28;20296;-66
2023/05/10 08:34:03;;;;;;;;;;;;;;;15.69;64.80;97500.13;5074634;28;20452;-67
2023/05/10 08:36:53;;;;;;;;;;;;;;;15.84;64.56;97508.69;5075979;28;19974;-64
2023/05/10 08:39:42;;;;;;;;;;;;;;;16.00;63.61;97500.44;5077513;28;20370;-65
2023/05/10 08:42:31;;;;;;;;;;;;;;;16.21;63.30;97504.47;5085820;28;19934;-66
2023/05/10 08:45:19;;;;;;;;;;;;;;;16.40;62.79;97500.94;5086471;28;19991;-65
2023/05/10 08:48:08;;;;;;;;;;;;;;;16.62;61.79;97504.94;5080697;28;19927;-66
2023/05/10 08:50:56;;;;;;;;;;;;;;;16.68;60.37;97503.50;5070844;28;19934;-65
2023/05/10 08:53:46;;;;;;;;;;;;;;;16.61;60.73;97508.03;5087636;28;19951;-64
2023/05/10 08:56:34;;;;;;;;;;;;;;;16.54;60.70;97511.44;5083181;28;19927;-65
2023/05/10 08:59:25;;;;;;;;;;;;;;;16.68;59.93;97509.00;5070012;28;20027;-65
2023/05/10 09:02:13;;;;;;;;;;;;;;;16.58;59.85;97500.53;5069448;28;19938;-66
2023/05/10 09:05:05;;;;;;;;;;;;;;;16.50;60.56;97507.81;5084232;28;20072;-65
2023/05/10 09:07:53;;;;;;;;;;;;;;;16.43;60.78;97513.16;5081869;28;19969;-66
2023/05/10 09:10:43;;;;;;;;;;;;;;;16.14;63.10;97520.75;5076329;28;20001;-66
2023/05/10 09:13:32;;;;;;;;;;;;;;;15.93;66.15;97528.47;5077349;28;19935;-66
2023/05/10 09:16:20;;;;;;;;;;;;;;;15.58;70.02;97537.38;5084575;28;20060;-66
2023/05/10 09:19:11;;;;;;;;;;;;;;;14.93;70.30;97534.91;5082800;28;20041;-67
2023/05/10 09:22:01;;;;;;;;;;;;;;;14.60;71.80;97532.41;5065039;28;19942;-67
2023/05/10 09:24:59;;;;;;;;;;;;;;;14.38;73.59;97539.16;5058761;28;19939;-68
2023/05/10 09:27:49;;;;;;;;;;;;;;;14.38;74.88;97528.22;5063453;28;20599;-67
2023/05/10 09:30:37;;;;;;;;;;;;;;;14.38;75.01;97541.06;5048429;28;19935;-67
2023/05/10 09:33:28;;;;;;;;;;;;;;;14.43;73.92;97540.84;5049841;28;20420;-68
2023/05/10 09:36:16;;;;;;;;;;;;;;;14.36;74.92;97544.16;5062769;28;20069;-66
2023/05/10 09:39:04;;;;;;;;;;;;;;;14.41;75.35;97537.66;5063268;28;20478;-66
2023/05/10 09:41:54;;;;;;;;;;;;;;;14.57;75.02;97538.56;5065417;28;19920;-67
2023/05/10 09:44:46;;;;;;;;;;;;;;;14.72;74.49;97541.72;5059701;28;20463;-66
2023/05/10 09:47:34;;;;;;;;;;;;;;;14.83;74.34;97537.34;5048320;28;19977;-68
2023/05/10 09:50:23;;;;;;;;;;;;;;;15.08;73.26;97538.81;5063018;28;19956;-67
2023/05/10 09:53:12;;;;;;;;;;;;;;;15.29;71.85;97540.53;5061089;28;20447;-67
2023/05/10 09:56:00;;;;;;;;;;;;;;;15.59;71.25;97535.44;5046024;28;19970;-67
2023/05/10 09:58:48;;;;;;;;;;;;;;;15.75;69.70;97533.50;5047702;28;19944;-68
2023/05/10 10:01:38;;;;;;;;;;;;;;;15.96;69.20;97534.03;5050644;28;20218;-68
2023/05/10 10:04:26;;;;;;;;;;;;;;;16.14;67.50;97528.16;5063276;28;20249;-67
2023/05/10 10:07:14;;;;;;;;;;;;;;;16.39;66.64;97534.19;5062142;28;20535;-67
2023/05/10 10:10:04;;;;;;;;;;;;;;;16.46;66.36;97532.44;5057348;28;19955;-67
2023/05/10 10:12:52;;;;;;;;;;;;;;;16.71;65.37;97519.25;5063386;28;20390;-67
2023/05/10 10:15:43;;;;;;;;;;;;;;;16.89;65.15;97522.38;5062714;28;19992;-66
2023/05/10 10:18:33;;;;;;;;;;;;;;;16.77;65.35;97517.81;5062729;28;20053;-66
2023/05/10 10:21:21;;;;;;;;;;;;;;;16.96;63.31;97518.97;5069823;28;20446;-71
2023/05/10 10:24:09;;;;;;;;;;;;;;;17.19;62.05;97513.50;5084374;28;19935;-68
2023/05/10 10:27:02;;;;;;;;;;;;;;;17.39;59.41;97515.06;5068900;28;19920;-67
2023/05/10 10:29:52;;;;;;;;;;;;;;;17.34;59.01;97503.59;5076060;28;19920;-65
2023/05/10 10:32:46;;;;;;;;;;;;;;;17.28;59.86;97503.88;5083159;28;20354;-67
2023/05/10 10:35:36;;;;;;;;;;;;;;;17.27;58.07;97504.25;5093753;28;19924;-67
2023/05/10 10:38:26;;;;;;;;;;;;;;;17.09;56.49;97498.41;5087576;28;20257;-67
2023/05/10 10:41:28;;;;;;;;;;;;;;;17.12;57.93;97502.41;5088041;28;19920;-62
2023/05/10 10:44:23;;;;;;;;;;;;;;;17.16;57.46;97501.31;5098898;28;19950;-67
2023/05/10 10:47:24;;;;;;;;;;;;;;;17.13;57.32;97504.78;5092390;28;19924;-65
2023/05/10 10:50:13;;;;;;;;;;;;;;;16.85;58.37;97512.47;5101393;28;19931;-65
2023/05/10 10:53:08;;;;;;;;;;;;;;;16.65;59.35;97509.69;5102511;28;19919;-66
2023/05/10 10:56:03;;;;;;;;;;;;;;;16.43;60.41;97513.94;5078198;28;19932;-67
2023/05/10 10:58:53;;;;;;;;;;;;;;;16.34;60.29;97516.09;5093687;28;19920;-64
2023/05/10 11:01:44;;;;;;;;;;;;;;;16.24;59.66;97516.66;5101922;28;20364;-67
2023/05/10 11:04:35;;;;;;;;;;;;;;;16.17;60.63;97516.50;5103626;28;19924;-65
2023/05/10 11:07:24;;;;;;;;;;;;;;;16.31;60.50;97518.78;5095545;28;20640;-65
2023/05/10 11:10:13;;;;;;;;;;;;;;;16.30;61.11;97523.47;5103524;28;19972;-66
2023/05/10 11:13:02;;;;;;;;;;;;;;;16.37;59.26;97514.59;5088562;28;20513;-66
2023/05/10 11:15:50;;;;;;;;;;;;;;;16.25;58.74;97521.00;5098843;28;20272;-67
2023/05/10 11:18:39;;;;;;;;;;;;;;;16.21;60.33;97522.84;5101514;28;19959;-67
2023/05/10 11:21:27;;;;;;;;;;;;;;;16.21;60.43;97520.13;5081163;28;20007;-68
2023/05/10 11:24:17;;;;;;;;;;;;;;;16.15;60.14;97519.59;5081263;28;19932;-67
2023/05/10 11:27:07;;;;;;;;;;;;;;;16.33;60.06;97522.72;5064662;28;19927;-69
2023/05/10 11:29:55;;;;;;;;;;;;;;;16.29;60.49;97526.53;5066980;28;20432;-67
2023/05/10 11:32:44;;;;;;;;;;;;;;;16.36;60.24;97527.50;5081127;28;19928;-66
2023/05/10 11:35:32;;;;;;;;;;;;;;;16.57;59.95;97518.94;5084434;28;19931;-65
2023/05/10 11:38:20;;;;;;;;;;;;;;;16.58;59.47;97526.00;5080534;28;19935;-69
2023/05/10 11:41:09;;;;;;;;;;;;;;;16.54;59.87;97511.44;5077938;28;20452;-67
2023/05/10 11:43:59;;;;;;;;;;;;;;;16.64;58.89;97523.78;5084203;28;20342;-67
2023/05/10 11:46:47;;;;;;;;;;;;;;;16.67;58.82;97529.34;5109941;27;20407;-66
2023/05/10 11:49:38;;;;;;;;;;;;;;;16.75;58.90;97530.31;5083358;28;20010;-65
2023/05/10 11:52:27;;;;;;;;;;;;;;;16.85;57.33;97528.94;5085826;28;20034;-65
2023/05/10 11:55:15;;;;;;;;;;;;;;;16.99;58.32;97529.19;5084243;28;19928;-65
2023/05/10 11:58:03;;;;;;;;;;;;;;;17.08;57.35;97527.03;5085275;28;20418;-64
2023/05/10 12:00:53;;;;;;;;;;;;;;;17.19;56.74;97521.75;5086730;28;20057;-67
2023/05/10 12:03:44;;;;;;;;;;;;;;;17.19;56.71;97530.75;5091877;28;19924;-67
2023/05/10 12:06:33;;;;;;;;;;;;;;;17.20;56.52;97524.13;5085852;28;19920;-67
2023/05/10 12:09:21;;;;;;;;;;;;;;;17.33;56.59;97523.97;5085999;28;19925;-67
2023/05/10 12:12:16;;;;;;;;;;;;;;;17.28;57.14;97531.34;5079449;28;20089;-65
2023/05/10 12:15:06;;;;;;;;;;;;;;;17.11;57.56;97529.06;5088141;28;19924;-64
2023/05/10 12:17:56;;;;;;;;;;;;;;;16.88;57.94;97533.69;5095492;28;19946;-69
2023/05/10 12:20:44;;;;;;;;;;;;;;;16.83;58.47;97532.06;5085752;28;19920;-66
2023/05/10 12:23:32;;;;;;;;;;;;;;;16.81;59.02;97533.56;5085259;28;19935;-66
2023/05/10 12:26:22;;;;;;;;;;;;;;;16.85;59.54;97528.94;5070241;28;20250;-66
2023/05/10 12:29:15;;;;;;;;;;;;;;;16.92;58.50;97534.56;5058472;28;20030;-67
2023/05/10 12:32:03;;;;;;;;;;;;;;;17.02;56.47;97532.03;5052092;28;19924;-67
2023/05/10 12:34:53;;;;;;;;;;;;;;;17.02;56.79;97528.47;5086661;28;19920;-65
2023/05/10 12:37:42;;;;;;;;;;;;;;;17.10;58.27;97529.41;5069383;28;21142;-66
2023/05/10 12:40:30;;;;;;;;;;;;;;;17.09;58.05;97527.81;5073280;28;19921;-67
2023/05/10 12:43:19;;;;;;;;;;;;;;;17.19;58.08;97528.03;5065987;28;19925;-66
2023/05/10 12:46:08;;;;;;;;;;;;;;;17.18;57.83;97528.41;5076320;28;19928;-68
2023/05/10 12:48:56;;;;;;;;;;;;;;;17.25;57.56;97537.53;5065442;28;19920;-68
2023/05/10 12:51:56;;;;;;;;;;;;;;;17.29;56.80;97523.88;5082873;28;19924;-64
2023/05/10 12:54:45;;;;;;;;;;;;;;;17.34;55.18;97528.28;5058382;28;20822;-65
2023/05/10 12:57:33;;;;;;;;;;;;;;;17.37;54.92;97538.56;5067804;28;20011;-67
2023/05/10 13:00:22;;;;;;;;;;;;;;;17.47;55.02;97533.25;5074750;28;20541;-67
2023/05/10 13:03:10;;;;;;;;;;;;;;;17.46;54.62;97536.34;5066867;28;19924;-66
2023/05/10 13:05:59;;;;;;;;;;;;;;;17.50;54.58;97526.22;5066142;28;19920;-67
2023/05/10 13:08:48;;;;;;;;;;;;;;;17.43;54.70;97543.38;5070760;28;19920;-66
2023/05/10 13:11:37;;;;;;;;;;;;;;;17.37;55.41;97536.59;5074183;28;20007;-66
2023/05/10 13:14:25;;;;;;;;;;;;;;;17.37;55.74;97533.84;5074119;28;19924;-65
2023/05/10 13:17:13;;;;;;;;;;;;;;;17.40;55.70;97533.09;5094149;28;20518;-66
2023/05/10 13:20:02;;;;;;;;;;;;;;;17.48;56.02;97534.03;5058498;28;19928;-65
2023/05/10 13:22:50;;;;;;;;;;;;;;;17.44;56.62;97538.69;5063655;28;20077;-64
2023/05/10 13:25:40;;;;;;;;;;;;;;;17.42;56.37;97538.25;5074848;28;20117;-65
2023/05/10 13:28:29;;;;;;;;;;;;;;;17.40;57.04;97537.81;5063767;28;19935;-66
2023/05/10 13:31:18;;;;;;;;;;;;;;;17.27;57.28;97546.22;5048239;28;19928;-65
2023/05/10 13:34:06;;;;;;;;;;;;;;;17.05;56.90;97543.44;5061941;28;19928;-63
2023/05/10 13:36:55;;;;;;;;;;;;;;;16.76;60.12;97548.34;5063556;28;20431;-66
2023/05/10 13:39:44;;;;;;;;;;;;;;;16.46;61.42;97550.84;5063475;28;19931;-65
2023/05/10 13:42:34;;;;;;;;;;;;;;;16.28;63.26;97555.91;5048371;28;19947;-67
2023/05/10 13:45:22;;;;;;;;;;;;;;;16.07;65.89;97545.25;5062903;28;19924;-67
2023/05/10 13:48:11;;;;;;;;;;;;;;;16.05;66.03;97542.06;5043273;28;20358;-67
2023/05/10 13:50:59;;;;;;;;;;;;;;;16.01;67.07;97538.44;5075460;28;19920;-67
2023/05/10 13:53:47;;;;;;;;;;;;;;;16.06;67.49;97538.19;5052429;28;20518;-66
2023/05/10 13:56:36;;;;;;;;;;;;;;;16.20;67.33;97533.03;5061524;28;20771;-66
2023/05/10 13:59:25;;;;;;;;;;;;;;;16.41;67.53;97540.16;5062649;28;19920;-67
2023/05/10 14:02:14;;;;;;;;;;;;;;;16.54;67.21;97530.63;5062237;28;19924;-67
2023/05/10 14:05:02;;;;;;;;;;;;;;;16.59;66.67;97527.59;5061668;28;20292;-67
2023/05/10 14:07:51;;;;;;;;;;;;;;;16.74;65.95;97532.25;5049532;28;19920;-66
2023/05/10 14:10:39;;;;;;;;;;;;;;;16.89;66.55;97530.59;5059832;28;19928;-66
2023/05/10 14:13:28;;;;;;;;;;;;;;;16.92;66.54;97529.84;5061778;28;19951;-67
2023/05/10 14:16:20;;;;;;;;;;;;;;;17.04;66.17;97523.41;5048245;28;20538;-68
2023/05/10 14:19:08;;;;;;;;;;;;;;;17.07;65.21;97536.44;5061157;28;19920;-66
2023/05/10 14:21:56;;;;;;;;;;;;;;;17.06;62.94;97525.81;5061712;28;20011;-68
2023/05/10 14:24:46;;;;;;;;;;;;;;;17.01;62.88;97527.69;5055005;28;19932;-64
2023/05/10 14:27:35;;;;;;;;;;;;;;;17.03;63.71;97527.31;5066637;28;19926;-65
2023/05/10 14:30:23;;;;;;;;;;;;;;;17.04;63.19;97531.66;5069307;28;20389;-66
2023/05/10 14:33:13;;;;;;;;;;;;;;;16.88;64.09;97529.00;5054408;28;19921;-67
2023/05/10 14:36:03;;;;;;;;;;;;;;;16.76;63.77;97524.44;5064101;28;19924;-66
2023/05/10 14:38:51;;;;;;;;;;;;;;;16.77;63.50;97534.25;5054787;28;20000;-67
2023/05/10 14:41:44;;;;;;;;;;;;;;;16.77;61.84;97526.03;5035135;28;19933;-67